sensor_id;sensor_type;location;lat;lon;timestamp;P1;durP1;ratioP1;P2;durP2;ratioP2
68858;SDS011;55864;49.238;8.092;2023-05-17T00:01:56;6.13;;;2.60;;
68858;SDS011;55864;49.238;8.092;2023-05-17T00:03:58;5.97;;;2.10;;
68858;SDS011;55864;49.238;8.092;2023-05-17T00:05:58;8.90;;;2.03;;
68858;SDS011;55864;49.238;8.092;2023-05-17T00:07:59;6.18;;;1.90;;
68858;SDS011;55864;49.238;8.092;2023-05-17T00:09:59;6.28;;;2.20;;
68858;SDS011;55864;49.238;8.092;2023-05-17T00:12:00;5.82;;;2.10;;
68858;SDS011;55864;49.238;8.092;2023-05-17T00:14:00;7.35;;;2.22;;
68858;SDS011;55864;49.238;8.092;2023-05-17T00:16:01;8.57;;;2.20;;
68858;SDS011;55864;49.238;8.092;2023-05-17T00:18:01;8.00;;;2.10;;
68858;SDS011;55864;49.238;8.092;2023-05-17T00:20:04;6.47;;;2.15;;
68858;SDS011;55864;49.238;8.092;2023-05-17T00:22:05;7.45;;;2.35;;
68858;SDS011;55864;49.238;8.092;2023-05-17T00:24:06;7.28;;;2.30;;
68858;SDS011;55864;49.238;8.092;2023-05-17T00:26:06;8.27;;;2.38;;
68858;SDS011;55864;49.238;8.092;2023-05-17T00:28:07;9.07;;;2.38;;
68858;SDS011;55864;49.238;8.092;2023-05-17T00:30:07;8.23;;;2.60;;
68858;SDS011;55864;49.238;8.092;2023-05-17T00:32:10;7.03;;;2.47;;
68858;SDS011;55864;49.238;8.092;2023-05-17T00:34:10;6.32;;;2.50;;
68858;SDS011;55864;49.238;8.092;2023-05-17T00:36:12;6.68;;;2.20;;
68858;SDS011;55864;49.238;8.092;2023-05-17T00:38:13;8.82;;;2.40;;
68858;SDS011;55864;49.238;8.092;2023-05-17T00:40:13;6.75;;;2.17;;
68858;SDS011;55864;49.238;8.092;2023-05-17T00:42:14;6.85;;;2.20;;
68858;SDS011;55864;49.238;8.092;2023-05-17T00:44:15;7.47;;;2.15;;
68858;SDS011;55864;49.238;8.092;2023-05-17T00:46:16;7.15;;;2.20;;
68858;SDS011;55864;49.238;8.092;2023-05-17T00:48:16;7.15;;;2.40;;
68858;SDS011;55864;49.238;8.092;2023-05-17T00:50:17;6.78;;;2.35;;
68858;SDS011;55864;49.238;8.092;2023-05-17T00:52:19;9.43;;;2.90;;
68858;SDS011;55864;49.238;8.092;2023-05-17T00:54:20;7.57;;;2.25;;
68858;SDS011;55864;49.238;8.092;2023-05-17T00:56:22;7.90;;;2.25;;
68858;SDS011;55864;49.238;8.092;2023-05-17T00:58:23;6.15;;;2.22;;
68858;SDS011;55864;49.238;8.092;2023-05-17T01:00:24;8.75;;;2.63;;
68858;SDS011;55864;49.238;8.092;2023-05-17T01:02:24;6.45;;;2.05;;
68858;SDS011;55864;49.238;8.092;2023-05-17T01:04:25;6.75;;;2.40;;
68858;SDS011;55864;49.238;8.092;2023-05-17T01:06:25;7.28;;;2.53;;
68858;SDS011;55864;49.238;8.092;2023-05-17T01:08:27;8.73;;;2.55;;
68858;SDS011;55864;49.238;8.092;2023-05-17T01:10:37;6.38;;;2.70;;
68858;SDS011;55864;49.238;8.092;2023-05-17T01:12:45;6.75;;;2.33;;
68858;SDS011;55864;49.238;8.092;2023-05-17T01:14:56;7.68;;;2.30;;
68858;SDS011;55864;49.238;8.092;2023-05-17T01:17:05;10.45;;;2.35;;
68858;SDS011;55864;49.238;8.092;2023-05-17T01:19:14;5.68;;;2.20;;
68858;SDS011;55864;49.238;8.092;2023-05-17T01:21:51;8.40;;;2.60;;
68858;SDS011;55864;49.238;8.092;2023-05-17T01:24:02;7.40;;;2.57;;
68858;SDS011;55864;49.238;8.092;2023-05-17T01:26:33;7.75;;;2.90;;
68858;SDS011;55864;49.238;8.092;2023-05-17T01:30:39;8.52;;;2.58;;
68858;SDS011;55864;49.238;8.092;2023-05-17T01:32:43;7.10;;;2.70;;
68858;SDS011;55864;49.238;8.092;2023-05-17T01:34:44;9.00;;;2.58;;
68858;SDS011;55864;49.238;8.092;2023-05-17T01:36:45;8.23;;;2.90;;
68858;SDS011;55864;49.238;8.092;2023-05-17T01:38:45;9.50;;;2.88;;
68858;SDS011;55864;49.238;8.092;2023-05-17T01:40:47;8.93;;;2.88;;
68858;SDS011;55864;49.238;8.092;2023-05-17T01:43:09;9.20;;;3.08;;
68858;SDS011;55864;49.238;8.092;2023-05-17T01:45:20;8.40;;;2.65;;
68858;SDS011;55864;49.238;8.092;2023-05-17T01:47:26;8.00;;;2.78;;
68858;SDS011;55864;49.238;8.092;2023-05-17T01:49:37;6.60;;;2.70;;
68858;SDS011;55864;49.238;8.092;2023-05-17T01:53:45;9.95;;;3.00;;
68858;SDS011;55864;49.238;8.092;2023-05-17T01:55:51;8.18;;;2.83;;
68858;SDS011;55864;49.238;8.092;2023-05-17T01:57:57;9.40;;;2.53;;
68858;SDS011;55864;49.238;8.092;2023-05-17T02:00:02;9.55;;;2.80;;
68858;SDS011;55864;49.238;8.092;2023-05-17T02:02:14;11.55;;;2.90;;
68858;SDS011;55864;49.238;8.092;2023-05-17T02:04:15;10.27;;;3.05;;
68858;SDS011;55864;49.238;8.092;2023-05-17T02:06:15;7.63;;;2.53;;
68858;SDS011;55864;49.238;8.092;2023-05-17T02:08:16;6.70;;;2.65;;
68858;SDS011;55864;49.238;8.092;2023-05-17T02:10:17;7.25;;;2.85;;
68858;SDS011;55864;49.238;8.092;2023-05-17T02:12:17;10.73;;;3.13;;
68858;SDS011;55864;49.238;8.092;2023-05-17T02:14:18;10.77;;;3.53;;
68858;SDS011;55864;49.238;8.092;2023-05-17T02:16:20;7.38;;;3.15;;
68858;SDS011;55864;49.238;8.092;2023-05-17T02:18:23;8.35;;;3.22;;
68858;SDS011;55864;49.238;8.092;2023-05-17T02:20:23;8.10;;;3.28;;
68858;SDS011;55864;49.238;8.092;2023-05-17T02:22:25;9.40;;;3.40;;
68858;SDS011;55864;49.238;8.092;2023-05-17T02:24:25;9.65;;;3.80;;
68858;SDS011;55864;49.238;8.092;2023-05-17T02:26:26;10.70;;;3.40;;
68858;SDS011;55864;49.238;8.092;2023-05-17T02:28:26;7.93;;;3.20;;
68858;SDS011;55864;49.238;8.092;2023-05-17T02:30:27;9.20;;;3.25;;
68858;SDS011;55864;49.238;8.092;2023-05-17T02:32:29;9.02;;;3.70;;
68858;SDS011;55864;49.238;8.092;2023-05-17T02:34:29;10.25;;;3.50;;
68858;SDS011;55864;49.238;8.092;2023-05-17T02:36:30;9.38;;;3.55;;
68858;SDS011;55864;49.238;8.092;2023-05-17T02:38:31;10.52;;;3.83;;
68858;SDS011;55864;49.238;8.092;2023-05-17T02:40:31;7.95;;;3.22;;
68858;SDS011;55864;49.238;8.092;2023-05-17T02:42:34;10.57;;;3.85;;
68858;SDS011;55864;49.238;8.092;2023-05-17T02:44:35;11.80;;;3.70;;
68858;SDS011;55864;49.238;8.092;2023-05-17T02:46:35;8.43;;;3.33;;
68858;SDS011;55864;49.238;8.092;2023-05-17T02:48:37;8.32;;;3.40;;
68858;SDS011;55864;49.238;8.092;2023-05-17T02:50:38;10.77;;;3.92;;
68858;SDS011;55864;49.238;8.092;2023-05-17T02:52:38;10.15;;;3.45;;
68858;SDS011;55864;49.238;8.092;2023-05-17T02:54:40;7.97;;;3.40;;
68858;SDS011;55864;49.238;8.092;2023-05-17T02:56:40;8.65;;;3.35;;
68858;SDS011;55864;49.238;8.092;2023-05-17T02:58:41;11.18;;;3.47;;
68858;SDS011;55864;49.238;8.092;2023-05-17T03:00:43;9.00;;;3.60;;
68858;SDS011;55864;49.238;8.092;2023-05-17T03:02:44;9.95;;;3.05;;
68858;SDS011;55864;49.238;8.092;2023-05-17T03:04:45;10.25;;;3.70;;
68858;SDS011;55864;49.238;8.092;2023-05-17T03:06:46;9.52;;;3.45;;
68858;SDS011;55864;49.238;8.092;2023-05-17T03:08:47;10.95;;;3.85;;
68858;SDS011;55864;49.238;8.092;2023-05-17T03:10:47;8.85;;;3.35;;
68858;SDS011;55864;49.238;8.092;2023-05-17T03:12:48;8.65;;;2.90;;
68858;SDS011;55864;49.238;8.092;2023-05-17T03:16:53;9.27;;;3.22;;
68858;SDS011;55864;49.238;8.092;2023-05-17T03:18:55;9.95;;;3.65;;
68858;SDS011;55864;49.238;8.092;2023-05-17T03:20:57;10.07;;;3.20;;
68858;SDS011;55864;49.238;8.092;2023-05-17T03:22:58;10.77;;;4.38;;
68858;SDS011;55864;49.238;8.092;2023-05-17T03:25:00;8.68;;;3.45;;
68858;SDS011;55864;49.238;8.092;2023-05-17T03:27:00;10.70;;;3.38;;
68858;SDS011;55864;49.238;8.092;2023-05-17T03:29:01;9.05;;;3.75;;
68858;SDS011;55864;49.238;8.092;2023-05-17T03:31:02;9.63;;;3.85;;
68858;SDS011;55864;49.238;8.092;2023-05-17T03:35:06;9.55;;;3.55;;
68858;SDS011;55864;49.238;8.092;2023-05-17T03:37:10;9.88;;;3.60;;
68858;SDS011;55864;49.238;8.092;2023-05-17T03:39:10;9.45;;;3.63;;
68858;SDS011;55864;49.238;8.092;2023-05-17T03:41:13;9.43;;;3.35;;
68858;SDS011;55864;49.238;8.092;2023-05-17T03:43:15;10.15;;;3.35;;
68858;SDS011;55864;49.238;8.092;2023-05-17T03:45:15;11.85;;;3.80;;
68858;SDS011;55864;49.238;8.092;2023-05-17T03:47:16;7.82;;;3.17;;
68858;SDS011;55864;49.238;8.092;2023-05-17T03:49:17;10.15;;;3.55;;
68858;SDS011;55864;49.238;8.092;2023-05-17T03:51:18;9.18;;;3.42;;
68858;SDS011;55864;49.238;8.092;2023-05-17T03:53:20;11.38;;;3.53;;
68858;SDS011;55864;49.238;8.092;2023-05-17T03:55:21;10.52;;;3.20;;
68858;SDS011;55864;49.238;8.092;2023-05-17T03:57:22;9.70;;;3.35;;
68858;SDS011;55864;49.238;8.092;2023-05-17T03:59:23;9.63;;;3.15;;
68858;SDS011;55864;49.238;8.092;2023-05-17T04:01:23;9.32;;;3.63;;
68858;SDS011;55864;49.238;8.092;2023-05-17T04:03:24;11.00;;;3.13;;
68858;SDS011;55864;49.238;8.092;2023-05-17T04:05:24;11.95;;;3.60;;
68858;SDS011;55864;49.238;8.092;2023-05-17T04:07:26;9.18;;;3.10;;
68858;SDS011;55864;49.238;8.092;2023-05-17T04:09:29;9.40;;;3.35;;
68858;SDS011;55864;49.238;8.092;2023-05-17T04:11:30;8.68;;;3.45;;
68858;SDS011;55864;49.238;8.092;2023-05-17T04:13:30;10.65;;;3.10;;
68858;SDS011;55864;49.238;8.092;2023-05-17T04:15:31;8.52;;;3.15;;
68858;SDS011;55864;49.238;8.092;2023-05-17T04:17:33;7.40;;;3.00;;
68858;SDS011;55864;49.238;8.092;2023-05-17T04:19:33;11.15;;;3.30;;
68858;SDS011;55864;49.238;8.092;2023-05-17T04:21:34;7.93;;;3.30;;
68858;SDS011;55864;49.238;8.092;2023-05-17T04:23:35;9.25;;;3.50;;
68858;SDS011;55864;49.238;8.092;2023-05-17T04:25:37;11.43;;;3.25;;
68858;SDS011;55864;49.238;8.092;2023-05-17T04:27:38;6.97;;;3.17;;
68858;SDS011;55864;49.238;8.092;2023-05-17T04:29:40;10.45;;;3.13;;
68858;SDS011;55864;49.238;8.092;2023-05-17T04:31:41;8.70;;;3.17;;
68858;SDS011;55864;49.238;8.092;2023-05-17T04:33:41;8.55;;;3.40;;
68858;SDS011;55864;49.238;8.092;2023-05-17T04:35:42;7.95;;;3.00;;
68858;SDS011;55864;49.238;8.092;2023-05-17T04:37:43;8.25;;;3.10;;
68858;SDS011;55864;49.238;8.092;2023-05-17T04:39:52;9.52;;;3.25;;
68858;SDS011;55864;49.238;8.092;2023-05-17T04:41:54;8.15;;;2.92;;
68858;SDS011;55864;49.238;8.092;2023-05-17T04:43:55;11.13;;;3.00;;
68858;SDS011;55864;49.238;8.092;2023-05-17T04:46:02;8.45;;;2.95;;
68858;SDS011;55864;49.238;8.092;2023-05-17T04:48:03;7.38;;;2.72;;
68858;SDS011;55864;49.238;8.092;2023-05-17T04:50:05;10.43;;;3.03;;
68858;SDS011;55864;49.238;8.092;2023-05-17T04:52:08;8.10;;;3.67;;
68858;SDS011;55864;49.238;8.092;2023-05-17T04:54:09;9.02;;;3.20;;
68858;SDS011;55864;49.238;8.092;2023-05-17T04:56:10;7.75;;;3.05;;
68858;SDS011;55864;49.238;8.092;2023-05-17T04:58:12;8.27;;;2.60;;
68858;SDS011;55864;49.238;8.092;2023-05-17T05:00:13;8.50;;;3.00;;
68858;SDS011;55864;49.238;8.092;2023-05-17T05:02:17;9.98;;;2.70;;
68858;SDS011;55864;49.238;8.092;2023-05-17T05:04:17;9.75;;;2.50;;
68858;SDS011;55864;49.238;8.092;2023-05-17T05:06:20;8.80;;;3.05;;
68858;SDS011;55864;49.238;8.092;2023-05-17T05:08:21;7.78;;;2.95;;
68858;SDS011;55864;49.238;8.092;2023-05-17T05:10:22;10.25;;;2.67;;
68858;SDS011;55864;49.238;8.092;2023-05-17T05:12:23;6.82;;;2.25;;
68858;SDS011;55864;49.238;8.092;2023-05-17T05:14:25;8.98;;;2.72;;
68858;SDS011;55864;49.238;8.092;2023-05-17T05:16:26;8.27;;;2.75;;
68858;SDS011;55864;49.238;8.092;2023-05-17T05:18:26;8.88;;;2.65;;
68858;SDS011;55864;49.238;8.092;2023-05-17T05:20:27;11.10;;;3.08;;
68858;SDS011;55864;49.238;8.092;2023-05-17T05:22:29;8.40;;;2.72;;
68858;SDS011;55864;49.238;8.092;2023-05-17T05:24:29;9.38;;;2.70;;
68858;SDS011;55864;49.238;8.092;2023-05-17T05:26:30;6.78;;;2.67;;
68858;SDS011;55864;49.238;8.092;2023-05-17T05:28:32;8.73;;;2.83;;
68858;SDS011;55864;49.238;8.092;2023-05-17T05:30:34;5.70;;;2.22;;
68858;SDS011;55864;49.238;8.092;2023-05-17T05:32:35;7.95;;;2.80;;
68858;SDS011;55864;49.238;8.092;2023-05-17T05:34:35;8.95;;;2.75;;
68858;SDS011;55864;49.238;8.092;2023-05-17T05:36:37;11.32;;;2.70;;
68858;SDS011;55864;49.238;8.092;2023-05-17T05:38:38;8.30;;;2.88;;
68858;SDS011;55864;49.238;8.092;2023-05-17T05:40:39;10.52;;;2.97;;
68858;SDS011;55864;49.238;8.092;2023-05-17T05:42:40;9.30;;;2.80;;
68858;SDS011;55864;49.238;8.092;2023-05-17T05:44:40;6.50;;;2.67;;
68858;SDS011;55864;49.238;8.092;2023-05-17T05:46:43;7.57;;;3.03;;
68858;SDS011;55864;49.238;8.092;2023-05-17T05:48:45;10.90;;;3.22;;
68858;SDS011;55864;49.238;8.092;2023-05-17T05:50:46;9.60;;;2.92;;
68858;SDS011;55864;49.238;8.092;2023-05-17T05:52:46;10.52;;;3.38;;
68858;SDS011;55864;49.238;8.092;2023-05-17T05:54:47;10.45;;;3.00;;
68858;SDS011;55864;49.238;8.092;2023-05-17T05:56:47;7.82;;;3.00;;
68858;SDS011;55864;49.238;8.092;2023-05-17T05:58:51;7.78;;;3.10;;
68858;SDS011;55864;49.238;8.092;2023-05-17T06:00:52;7.70;;;2.65;;
68858;SDS011;55864;49.238;8.092;2023-05-17T06:02:54;9.90;;;2.83;;
68858;SDS011;55864;49.238;8.092;2023-05-17T06:04:54;10.90;;;3.00;;
68858;SDS011;55864;49.238;8.092;2023-05-17T06:06:55;8.93;;;3.00;;
68858;SDS011;55864;49.238;8.092;2023-05-17T06:08:55;7.60;;;2.80;;
68858;SDS011;55864;49.238;8.092;2023-05-17T06:10:56;9.55;;;3.00;;
68858;SDS011;55864;49.238;8.092;2023-05-17T06:12:56;9.00;;;3.15;;
68858;SDS011;55864;49.238;8.092;2023-05-17T06:14:57;11.18;;;3.40;;
68858;SDS011;55864;49.238;8.092;2023-05-17T06:16:58;9.57;;;2.97;;
68858;SDS011;55864;49.238;8.092;2023-05-17T06:19:00;9.55;;;3.15;;
68858;SDS011;55864;49.238;8.092;2023-05-17T06:21:00;9.68;;;2.95;;
68858;SDS011;55864;49.238;8.092;2023-05-17T06:23:01;8.75;;;2.97;;
68858;SDS011;55864;49.238;8.092;2023-05-17T06:25:01;9.20;;;3.15;;
68858;SDS011;55864;49.238;8.092;2023-05-17T06:27:02;10.35;;;3.00;;
68858;SDS011;55864;49.238;8.092;2023-05-17T06:29:03;11.32;;;3.30;;
68858;SDS011;55864;49.238;8.092;2023-05-17T06:31:03;9.27;;;3.45;;
68858;SDS011;55864;49.238;8.092;2023-05-17T06:33:04;9.93;;;2.97;;
68858;SDS011;55864;49.238;8.092;2023-05-17T06:35:06;9.68;;;2.80;;
68858;SDS011;55864;49.238;8.092;2023-05-17T06:37:08;9.13;;;3.60;;
68858;SDS011;55864;49.238;8.092;2023-05-17T06:39:08;8.93;;;3.30;;
68858;SDS011;55864;49.238;8.092;2023-05-17T06:41:09;8.40;;;3.08;;
68858;SDS011;55864;49.238;8.092;2023-05-17T06:43:09;10.05;;;3.20;;
68858;SDS011;55864;49.238;8.092;2023-05-17T06:45:10;14.27;;;3.67;;
68858;SDS011;55864;49.238;8.092;2023-05-17T06:47:11;9.93;;;3.85;;
68858;SDS011;55864;49.238;8.092;2023-05-17T06:49:11;11.57;;;3.92;;
68858;SDS011;55864;49.238;8.092;2023-05-17T06:51:13;9.65;;;3.45;;
68858;SDS011;55864;49.238;8.092;2023-05-17T06:53:14;12.00;;;4.18;;
68858;SDS011;55864;49.238;8.092;2023-05-17T06:55:14;9.13;;;2.72;;
68858;SDS011;55864;49.238;8.092;2023-05-17T06:57:15;9.55;;;3.42;;
68858;SDS011;55864;49.238;8.092;2023-05-17T06:59:16;12.23;;;3.67;;
68858;SDS011;55864;49.238;8.092;2023-05-17T07:01:16;9.30;;;3.30;;
68858;SDS011;55864;49.238;8.092;2023-05-17T07:03:17;7.60;;;2.72;;
68858;SDS011;55864;49.238;8.092;2023-05-17T07:05:17;9.45;;;3.30;;
68858;SDS011;55864;49.238;8.092;2023-05-17T07:07:19;9.10;;;2.85;;
68858;SDS011;55864;49.238;8.092;2023-05-17T07:09:20;9.45;;;3.00;;
68858;SDS011;55864;49.238;8.092;2023-05-17T07:11:21;9.43;;;3.35;;
68858;SDS011;55864;49.238;8.092;2023-05-17T07:13:22;11.82;;;4.20;;
68858;SDS011;55864;49.238;8.092;2023-05-17T07:15:22;10.25;;;3.30;;
68858;SDS011;55864;49.238;8.092;2023-05-17T07:17:23;10.55;;;3.05;;
68858;SDS011;55864;49.238;8.092;2023-05-17T07:19:23;8.90;;;3.45;;
68858;SDS011;55864;49.238;8.092;2023-05-17T07:21:24;13.02;;;4.07;;
68858;SDS011;55864;49.238;8.092;2023-05-17T07:23:26;11.05;;;3.05;;
68858;SDS011;55864;49.238;8.092;2023-05-17T07:25:27;12.73;;;3.50;;
68858;SDS011;55864;49.238;8.092;2023-05-17T07:27:27;13.68;;;4.20;;
68858;SDS011;55864;49.238;8.092;2023-05-17T07:29:28;11.50;;;3.22;;
68858;SDS011;55864;49.238;8.092;2023-05-17T07:31:29;9.50;;;3.40;;
68858;SDS011;55864;49.238;8.092;2023-05-17T07:33:29;10.45;;;3.70;;
68858;SDS011;55864;49.238;8.092;2023-05-17T07:35:30;8.60;;;3.33;;
68858;SDS011;55864;49.238;8.092;2023-05-17T07:37:30;10.95;;;3.65;;
68858;SDS011;55864;49.238;8.092;2023-05-17T07:39:32;11.25;;;3.30;;
68858;SDS011;55864;49.238;8.092;2023-05-17T07:41:33;9.38;;;3.88;;
68858;SDS011;55864;49.238;8.092;2023-05-17T07:43:34;12.40;;;3.65;;
68858;SDS011;55864;49.238;8.092;2023-05-17T07:45:35;10.48;;;3.45;;
68858;SDS011;55864;49.238;8.092;2023-05-17T07:47:35;12.48;;;3.60;;
68858;SDS011;55864;49.238;8.092;2023-05-17T07:49:36;8.70;;;3.58;;
68858;SDS011;55864;49.238;8.092;2023-05-17T07:51:36;10.90;;;3.53;;
68858;SDS011;55864;49.238;8.092;2023-05-17T07:53:37;10.82;;;3.90;;
68858;SDS011;55864;49.238;8.092;2023-05-17T07:55:39;11.80;;;4.10;;
68858;SDS011;55864;49.238;8.092;2023-05-17T07:57:40;12.40;;;4.18;;
68858;SDS011;55864;49.238;8.092;2023-05-17T07:59:40;10.13;;;3.63;;
68858;SDS011;55864;49.238;8.092;2023-05-17T08:01:41;13.63;;;4.45;;
68858;SDS011;55864;49.238;8.092;2023-05-17T08:03:41;10.75;;;3.65;;
68858;SDS011;55864;49.238;8.092;2023-05-17T08:05:42;9.75;;;3.67;;
68858;SDS011;55864;49.238;8.092;2023-05-17T08:07:42;11.70;;;3.65;;
68858;SDS011;55864;49.238;8.092;2023-05-17T08:09:43;8.48;;;3.47;;
68858;SDS011;55864;49.238;8.092;2023-05-17T08:11:45;11.32;;;3.70;;
68858;SDS011;55864;49.238;8.092;2023-05-17T08:13:45;8.98;;;3.45;;
68858;SDS011;55864;49.238;8.092;2023-05-17T08:15:46;12.00;;;3.45;;
68858;SDS011;55864;49.238;8.092;2023-05-17T08:17:46;12.02;;;3.67;;
68858;SDS011;55864;49.238;8.092;2023-05-17T08:19:47;11.45;;;3.25;;
68858;SDS011;55864;49.238;8.092;2023-05-17T08:21:47;11.10;;;3.95;;
68858;SDS011;55864;49.238;8.092;2023-05-17T08:23:48;9.82;;;3.42;;
68858;SDS011;55864;49.238;8.092;2023-05-17T08:25:49;9.50;;;3.65;;
68858;SDS011;55864;49.238;8.092;2023-05-17T08:27:51;8.57;;;3.30;;
68858;SDS011;55864;49.238;8.092;2023-05-17T08:29:52;10.40;;;3.55;;
68858;SDS011;55864;49.238;8.092;2023-05-17T08:31:52;11.18;;;3.80;;
68858;SDS011;55864;49.238;8.092;2023-05-17T08:33:53;8.52;;;3.33;;
68858;SDS011;55864;49.238;8.092;2023-05-17T08:35:53;10.15;;;3.58;;
68858;SDS011;55864;49.238;8.092;2023-05-17T08:37:54;11.95;;;3.58;;
68858;SDS011;55864;49.238;8.092;2023-05-17T08:39:55;9.35;;;3.53;;
68858;SDS011;55864;49.238;8.092;2023-05-17T08:41:55;10.07;;;3.40;;
68858;SDS011;55864;49.238;8.092;2023-05-17T08:43:57;10.57;;;3.70;;
68858;SDS011;55864;49.238;8.092;2023-05-17T08:45:58;11.13;;;3.80;;
68858;SDS011;55864;49.238;8.092;2023-05-17T08:47:59;11.10;;;3.80;;
68858;SDS011;55864;49.238;8.092;2023-05-17T08:49:59;10.07;;;3.80;;
68858;SDS011;55864;49.238;8.092;2023-05-17T08:52:00;16.02;;;4.35;;
68858;SDS011;55864;49.238;8.092;2023-05-17T08:54:02;9.23;;;3.10;;
68858;SDS011;55864;49.238;8.092;2023-05-17T08:56:02;9.40;;;3.45;;
68858;SDS011;55864;49.238;8.092;2023-05-17T08:58:04;10.13;;;3.60;;
68858;SDS011;55864;49.238;8.092;2023-05-17T09:00:07;7.97;;;3.15;;
68858;SDS011;55864;49.238;8.092;2023-05-17T09:02:10;9.15;;;3.75;;
68858;SDS011;55864;49.238;8.092;2023-05-17T09:04:13;8.52;;;3.47;;
68858;SDS011;55864;49.238;8.092;2023-05-17T09:06:15;8.32;;;3.35;;
68858;SDS011;55864;49.238;8.092;2023-05-17T09:08:19;10.90;;;3.70;;
68858;SDS011;55864;49.238;8.092;2023-05-17T09:10:21;8.50;;;3.53;;
68858;SDS011;55864;49.238;8.092;2023-05-17T09:12:21;8.70;;;3.30;;
68858;SDS011;55864;49.238;8.092;2023-05-17T09:14:22;8.13;;;3.35;;
68858;SDS011;55864;49.238;8.092;2023-05-17T09:16:24;9.95;;;3.22;;
68858;SDS011;55864;49.238;8.092;2023-05-17T09:18:29;8.70;;;2.97;;
68858;SDS011;55864;49.238;8.092;2023-05-17T09:20:30;10.30;;;3.30;;
68858;SDS011;55864;49.238;8.092;2023-05-17T09:22:31;10.75;;;3.38;;
68858;SDS011;55864;49.238;8.092;2023-05-17T09:24:32;13.13;;;3.60;;
68858;SDS011;55864;49.238;8.092;2023-05-17T09:26:38;12.38;;;3.80;;
68858;SDS011;55864;49.238;8.092;2023-05-17T09:28:39;13.80;;;3.78;;
68858;SDS011;55864;49.238;8.092;2023-05-17T09:30:40;8.20;;;2.88;;
68858;SDS011;55864;49.238;8.092;2023-05-17T09:32:43;9.80;;;3.50;;
68858;SDS011;55864;49.238;8.092;2023-05-17T09:34:45;10.80;;;3.63;;
68858;SDS011;55864;49.238;8.092;2023-05-17T09:36:46;11.93;;;3.90;;
68858;SDS011;55864;49.238;8.092;2023-05-17T09:38:53;10.40;;;3.30;;
68858;SDS011;55864;49.238;8.092;2023-05-17T09:40:54;10.38;;;3.45;;
68858;SDS011;55864;49.238;8.092;2023-05-17T09:42:54;8.85;;;3.50;;
68858;SDS011;55864;49.238;8.092;2023-05-17T09:44:55;9.50;;;3.15;;
68858;SDS011;55864;49.238;8.092;2023-05-17T09:46:56;8.80;;;2.83;;
68858;SDS011;55864;49.238;8.092;2023-05-17T09:48:59;8.52;;;3.33;;
68858;SDS011;55864;49.238;8.092;2023-05-17T09:51:00;9.82;;;3.03;;
68858;SDS011;55864;49.238;8.092;2023-05-17T09:53:01;7.90;;;2.83;;
68858;SDS011;55864;49.238;8.092;2023-05-17T09:55:02;7.63;;;3.45;;
68858;SDS011;55864;49.238;8.092;2023-05-17T09:57:03;8.68;;;3.13;;
68858;SDS011;55864;49.238;8.092;2023-05-17T09:59:09;6.93;;;3.33;;
68858;SDS011;55864;49.238;8.092;2023-05-17T10:01:10;10.00;;;3.17;;
68858;SDS011;55864;49.238;8.092;2023-05-17T10:03:11;6.90;;;2.83;;
68858;SDS011;55864;49.238;8.092;2023-05-17T10:05:14;9.95;;;3.20;;
68858;SDS011;55864;49.238;8.092;2023-05-17T10:07:17;11.98;;;3.50;;
68858;SDS011;55864;49.238;8.092;2023-05-17T10:09:20;8.00;;;3.20;;
68858;SDS011;55864;49.238;8.092;2023-05-17T10:11:23;8.00;;;3.38;;
68858;SDS011;55864;49.238;8.092;2023-05-17T10:13:36;7.57;;;3.47;;
68858;SDS011;55864;49.238;8.092;2023-05-17T10:16:07;9.77;;;3.05;;
68858;SDS011;55864;49.238;8.092;2023-05-17T10:18:17;10.45;;;3.35;;
68858;SDS011;55864;49.238;8.092;2023-05-17T10:22:59;8.32;;;2.90;;
68858;SDS011;55864;49.238;8.092;2023-05-17T10:25:19;8.60;;;3.17;;
68858;SDS011;55864;49.238;8.092;2023-05-17T10:27:30;10.30;;;3.17;;
68858;SDS011;55864;49.238;8.092;2023-05-17T10:29:44;9.13;;;3.08;;
68858;SDS011;55864;49.238;8.092;2023-05-17T10:32:16;7.70;;;3.10;;
68858;SDS011;55864;49.238;8.092;2023-05-17T10:34:18;9.45;;;3.50;;
68858;SDS011;55864;49.238;8.092;2023-05-17T10:36:20;9.88;;;3.13;;
68858;SDS011;55864;49.238;8.092;2023-05-17T10:38:30;7.60;;;2.75;;
68858;SDS011;55864;49.238;8.092;2023-05-17T10:40:44;6.63;;;2.70;;
68858;SDS011;55864;49.238;8.092;2023-05-17T10:43:00;9.75;;;2.90;;
68858;SDS011;55864;49.238;8.092;2023-05-17T10:45:39;9.65;;;3.67;;
68858;SDS011;55864;49.238;8.092;2023-05-17T10:48:09;7.65;;;3.08;;
68858;SDS011;55864;49.238;8.092;2023-05-17T10:50:23;9.55;;;3.13;;
68858;SDS011;55864;49.238;8.092;2023-05-17T10:52:37;8.38;;;2.90;;
68858;SDS011;55864;49.238;8.092;2023-05-17T10:54:45;9.23;;;2.90;;
68858;SDS011;55864;49.238;8.092;2023-05-17T10:56:48;9.88;;;3.55;;
68858;SDS011;55864;49.238;8.092;2023-05-17T10:59:03;9.95;;;3.15;;
68858;SDS011;55864;49.238;8.092;2023-05-17T11:01:21;9.98;;;3.25;;
68858;SDS011;55864;49.238;8.092;2023-05-17T11:03:49;7.85;;;2.72;;
68858;SDS011;55864;49.238;8.092;2023-05-17T11:08:16;8.77;;;2.70;;
68858;SDS011;55864;49.238;8.092;2023-05-17T11:12:26;6.28;;;2.70;;
68858;SDS011;55864;49.238;8.092;2023-05-17T11:14:41;7.38;;;2.85;;
68858;SDS011;55864;49.238;8.092;2023-05-17T11:16:42;9.88;;;3.05;;
68858;SDS011;55864;49.238;8.092;2023-05-17T11:18:46;10.75;;;2.50;;
68858;SDS011;55864;49.238;8.092;2023-05-17T11:20:47;8.65;;;2.70;;
68858;SDS011;55864;49.238;8.092;2023-05-17T11:23:06;7.80;;;2.75;;
68858;SDS011;55864;49.238;8.092;2023-05-17T11:25:16;9.70;;;2.83;;
68858;SDS011;55864;49.238;8.092;2023-05-17T11:27:18;9.20;;;2.83;;
68858;SDS011;55864;49.238;8.092;2023-05-17T11:29:19;6.22;;;2.40;;
68858;SDS011;55864;49.238;8.092;2023-05-17T11:31:27;9.35;;;2.58;;
68858;SDS011;55864;49.238;8.092;2023-05-17T11:33:36;8.45;;;2.55;;
68858;SDS011;55864;49.238;8.092;2023-05-17T11:35:38;8.52;;;3.30;;
68858;SDS011;55864;49.238;8.092;2023-05-17T11:37:38;9.27;;;2.67;;
68858;SDS011;55864;49.238;8.092;2023-05-17T11:42:03;10.88;;;3.30;;
68858;SDS011;55864;49.238;8.092;2023-05-17T11:44:04;7.27;;;2.70;;
68858;SDS011;55864;49.238;8.092;2023-05-17T11:46:05;7.55;;;2.88;;
68858;SDS011;55864;49.238;8.092;2023-05-17T11:48:06;13.57;;;3.25;;
68858;SDS011;55864;49.238;8.092;2023-05-17T11:50:07;9.18;;;3.08;;
68858;SDS011;55864;49.238;8.092;2023-05-17T11:52:09;7.95;;;3.15;;
68858;SDS011;55864;49.238;8.092;2023-05-17T11:54:10;9.32;;;2.95;;
68858;SDS011;55864;49.238;8.092;2023-05-17T11:56:11;9.27;;;2.85;;
68858;SDS011;55864;49.238;8.092;2023-05-17T11:58:14;7.63;;;2.60;;
68858;SDS011;55864;49.238;8.092;2023-05-17T12:00:16;8.90;;;3.10;;
68858;SDS011;55864;49.238;8.092;2023-05-17T12:02:27;9.50;;;3.30;;
68858;SDS011;55864;49.238;8.092;2023-05-17T12:04:33;6.72;;;2.70;;
68858;SDS011;55864;49.238;8.092;2023-05-17T12:06:34;9.45;;;3.00;;
68858;SDS011;55864;49.238;8.092;2023-05-17T12:08:36;10.50;;;3.03;;
68858;SDS011;55864;49.238;8.092;2023-05-17T12:10:43;7.90;;;2.78;;
68858;SDS011;55864;49.238;8.092;2023-05-17T12:12:58;7.75;;;2.80;;
68858;SDS011;55864;49.238;8.092;2023-05-17T12:15:01;8.55;;;2.80;;
68858;SDS011;55864;49.238;8.092;2023-05-17T12:17:02;10.55;;;2.80;;
68858;SDS011;55864;49.238;8.092;2023-05-17T12:19:06;8.23;;;2.83;;
68858;SDS011;55864;49.238;8.092;2023-05-17T12:21:16;8.75;;;2.88;;
68858;SDS011;55864;49.238;8.092;2023-05-17T12:23:24;9.23;;;2.97;;
68858;SDS011;55864;49.238;8.092;2023-05-17T12:25:25;9.98;;;3.35;;
68858;SDS011;55864;49.238;8.092;2023-05-17T12:27:26;6.15;;;2.72;;
68858;SDS011;55864;49.238;8.092;2023-05-17T12:29:28;8.60;;;2.75;;
68858;SDS011;55864;49.238;8.092;2023-05-17T12:31:31;5.90;;;2.60;;
68858;SDS011;55864;49.238;8.092;2023-05-17T12:33:33;9.43;;;2.85;;
68858;SDS011;55864;49.238;8.092;2023-05-17T12:35:40;8.10;;;2.75;;